sensor_id;sensor_type;location;lat;lon;timestamp;P1;durP1;ratioP1;P2;durP2;ratioP2
78563;SDS011;67856;47.754;19.088;2024-02-26T00:01:54;3.30;;;2.03;;
78563;SDS011;67856;47.754;19.088;2024-02-26T00:04:56;3.47;;;2.30;;
78563;SDS011;67856;47.754;19.088;2024-02-26T00:07:59;3.90;;;2.40;;
78563;SDS011;67856;47.754;19.088;2024-02-26T00:11:05;4.78;;;2.35;;
78563;SDS011;67856;47.754;19.088;2024-02-26T00:14:07;3.22;;;2.33;;
78563;SDS011;67856;47.754;19.088;2024-02-26T00:17:10;3.43;;;2.10;;
78563;SDS011;67856;47.754;19.088;2024-02-26T00:20:12;3.10;;;2.03;;
78563;SDS011;67856;47.754;19.088;2024-02-26T00:23:15;3.30;;;2.30;;
78563;SDS011;67856;47.754;19.088;2024-02-26T00:26:18;3.40;;;2.20;;
78563;SDS011;67856;47.754;19.088;2024-02-26T00:29:20;3.75;;;2.25;;
78563;SDS011;67856;47.754;19.088;2024-02-26T00:32:23;3.10;;;2.07;;
78563;SDS011;67856;47.754;19.088;2024-02-26T00:35:26;2.67;;;2.03;;
78563;SDS011;67856;47.754;19.088;2024-02-26T00:38:28;2.85;;;2.15;;
78563;SDS011;67856;47.754;19.088;2024-02-26T00:41:31;3.60;;;2.10;;
78563;SDS011;67856;47.754;19.088;2024-02-26T00:44:33;3.50;;;2.25;;
78563;SDS011;67856;47.754;19.088;2024-02-26T00:47:35;3.10;;;2.00;;
78563;SDS011;67856;47.754;19.088;2024-02-26T00:50:38;3.47;;;2.17;;
78563;SDS011;67856;47.754;19.088;2024-02-26T00:53:40;3.60;;;2.20;;
78563;SDS011;67856;47.754;19.088;2024-02-26T00:56:43;3.75;;;2.50;;
78563;SDS011;67856;47.754;19.088;2024-02-26T00:59:45;3.50;;;2.35;;
78563;SDS011;67856;47.754;19.088;2024-02-26T01:02:48;3.97;;;2.20;;
78563;SDS011;67856;47.754;19.088;2024-02-26T01:05:51;3.47;;;2.13;;
78563;SDS011;67856;47.754;19.088;2024-02-26T01:08:58;3.30;;;2.28;;
78563;SDS011;67856;47.754;19.088;2024-02-26T01:12:01;3.55;;;2.25;;
78563;SDS011;67856;47.754;19.088;2024-02-26T01:15:04;2.88;;;1.80;;
78563;SDS011;67856;47.754;19.088;2024-02-26T01:18:08;3.23;;;2.23;;
78563;SDS011;67856;47.754;19.088;2024-02-26T01:21:10;3.67;;;2.40;;
78563;SDS011;67856;47.754;19.088;2024-02-26T01:24:13;3.00;;;2.10;;
78563;SDS011;67856;47.754;19.088;2024-02-26T01:27:15;3.63;;;2.30;;
78563;SDS011;67856;47.754;19.088;2024-02-26T01:30:18;3.65;;;2.30;;
78563;SDS011;67856;47.754;19.088;2024-02-26T01:33:20;3.70;;;2.20;;
78563;SDS011;67856;47.754;19.088;2024-02-26T01:36:23;3.10;;;2.20;;
78563;SDS011;67856;47.754;19.088;2024-02-26T01:39:26;3.50;;;2.25;;
78563;SDS011;67856;47.754;19.088;2024-02-26T01:42:30;3.75;;;2.17;;
78563;SDS011;67856;47.754;19.088;2024-02-26T01:45:34;3.08;;;2.03;;
78563;SDS011;67856;47.754;19.088;2024-02-26T01:48:36;3.20;;;2.20;;
78563;SDS011;67856;47.754;19.088;2024-02-26T01:51:39;2.80;;;1.90;;
78563;SDS011;67856;47.754;19.088;2024-02-26T01:54:42;3.45;;;2.15;;
78563;SDS011;67856;47.754;19.088;2024-02-26T01:57:47;4.13;;;1.90;;
78563;SDS011;67856;47.754;19.088;2024-02-26T02:00:51;3.22;;;1.90;;
78563;SDS011;67856;47.754;19.088;2024-02-26T02:03:54;3.33;;;2.30;;
78563;SDS011;67856;47.754;19.088;2024-02-26T02:06:57;3.50;;;2.30;;
78563;SDS011;67856;47.754;19.088;2024-02-26T02:10:00;3.75;;;2.00;;
78563;SDS011;67856;47.754;19.088;2024-02-26T02:13:02;2.95;;;2.10;;
78563;SDS011;67856;47.754;19.088;2024-02-26T02:16:05;3.42;;;1.92;;
78563;SDS011;67856;47.754;19.088;2024-02-26T02:19:08;4.33;;;2.13;;
78563;SDS011;67856;47.754;19.088;2024-02-26T02:22:10;3.23;;;1.87;;
78563;SDS011;67856;47.754;19.088;2024-02-26T02:25:13;3.42;;;2.20;;
78563;SDS011;67856;47.754;19.088;2024-02-26T02:28:15;2.75;;;2.10;;
78563;SDS011;67856;47.754;19.088;2024-02-26T02:31:18;2.90;;;2.20;;
78563;SDS011;67856;47.754;19.088;2024-02-26T02:34:21;2.77;;;2.00;;
78563;SDS011;67856;47.754;19.088;2024-02-26T02:37:24;3.83;;;2.27;;
78563;SDS011;67856;47.754;19.088;2024-02-26T02:40:26;3.35;;;1.77;;
78563;SDS011;67856;47.754;19.088;2024-02-26T02:43:28;2.90;;;2.00;;
78563;SDS011;67856;47.754;19.088;2024-02-26T02:46:31;3.47;;;2.00;;
78563;SDS011;67856;47.754;19.088;2024-02-26T02:49:35;3.17;;;2.30;;
78563;SDS011;67856;47.754;19.088;2024-02-26T02:52:38;2.85;;;1.92;;
78563;SDS011;67856;47.754;19.088;2024-02-26T02:55:40;3.67;;;2.30;;
78563;SDS011;67856;47.754;19.088;2024-02-26T02:58:43;2.90;;;1.90;;
78563;SDS011;67856;47.754;19.088;2024-02-26T03:01:45;3.60;;;2.33;;
78563;SDS011;67856;47.754;19.088;2024-02-26T03:04:48;2.97;;;1.92;;
78563;SDS011;67856;47.754;19.088;2024-02-26T03:07:50;3.30;;;2.10;;
78563;SDS011;67856;47.754;19.088;2024-02-26T03:10:53;2.70;;;1.80;;
78563;SDS011;67856;47.754;19.088;2024-02-26T03:13:55;2.80;;;1.67;;
78563;SDS011;67856;47.754;19.088;2024-02-26T03:16:57;2.72;;;1.70;;
78563;SDS011;67856;47.754;19.088;2024-02-26T03:20:00;3.05;;;2.05;;
78563;SDS011;67856;47.754;19.088;2024-02-26T03:23:03;2.55;;;1.77;;
78563;SDS011;67856;47.754;19.088;2024-02-26T03:26:05;2.87;;;1.80;;
78563;SDS011;67856;47.754;19.088;2024-02-26T03:29:08;2.70;;;1.70;;
78563;SDS011;67856;47.754;19.088;2024-02-26T03:32:10;1.98;;;1.50;;
78563;SDS011;67856;47.754;19.088;2024-02-26T03:35:13;2.42;;;1.77;;
78563;SDS011;67856;47.754;19.088;2024-02-26T03:38:15;2.17;;;1.60;;
78563;SDS011;67856;47.754;19.088;2024-02-26T03:41:18;2.53;;;1.80;;
78563;SDS011;67856;47.754;19.088;2024-02-26T03:44:20;2.80;;;1.60;;
78563;SDS011;67856;47.754;19.088;2024-02-26T03:47:22;2.58;;;1.70;;
78563;SDS011;67856;47.754;19.088;2024-02-26T03:50:25;2.63;;;1.60;;
78563;SDS011;67856;47.754;19.088;2024-02-26T03:53:28;2.45;;;1.70;;
78563;SDS011;67856;47.754;19.088;2024-02-26T03:56:30;2.10;;;1.50;;
78563;SDS011;67856;47.754;19.088;2024-02-26T03:59:33;2.53;;;1.70;;
78563;SDS011;67856;47.754;19.088;2024-02-26T04:02:35;2.47;;;1.80;;
78563;SDS011;67856;47.754;19.088;2024-02-26T04:05:37;2.35;;;1.60;;
78563;SDS011;67856;47.754;19.088;2024-02-26T04:08:41;2.38;;;1.70;;
78563;SDS011;67856;47.754;19.088;2024-02-26T04:11:43;2.37;;;1.47;;
78563;SDS011;67856;47.754;19.088;2024-02-26T04:14:46;2.80;;;1.60;;
78563;SDS011;67856;47.754;19.088;2024-02-26T04:17:48;2.00;;;1.50;;
78563;SDS011;67856;47.754;19.088;2024-02-26T04:20:51;2.17;;;1.52;;
78563;SDS011;67856;47.754;19.088;2024-02-26T04:23:53;2.13;;;1.40;;
78563;SDS011;67856;47.754;19.088;2024-02-26T04:26:57;2.30;;;1.70;;
78563;SDS011;67856;47.754;19.088;2024-02-26T04:30:00;2.03;;;1.50;;
78563;SDS011;67856;47.754;19.088;2024-02-26T04:33:03;2.58;;;1.55;;
78563;SDS011;67856;47.754;19.088;2024-02-26T04:36:05;2.78;;;1.67;;
78563;SDS011;67856;47.754;19.088;2024-02-26T04:39:09;2.00;;;1.60;;
78563;SDS011;67856;47.754;19.088;2024-02-26T04:42:12;2.70;;;1.50;;
78563;SDS011;67856;47.754;19.088;2024-02-26T04:45:14;2.10;;;1.60;;
78563;SDS011;67856;47.754;19.088;2024-02-26T04:48:17;2.40;;;1.40;;
78563;SDS011;67856;47.754;19.088;2024-02-26T04:51:19;2.50;;;1.60;;
78563;SDS011;67856;47.754;19.088;2024-02-26T04:54:22;2.88;;;1.95;;
78563;SDS011;67856;47.754;19.088;2024-02-26T04:57:25;2.33;;;1.63;;
78563;SDS011;67856;47.754;19.088;2024-02-26T05:00:28;2.00;;;1.50;;
78563;SDS011;67856;47.754;19.088;2024-02-26T05:03:30;2.13;;;1.65;;
78563;SDS011;67856;47.754;19.088;2024-02-26T05:06:37;1.92;;;1.48;;
78563;SDS011;67856;47.754;19.088;2024-02-26T05:09:40;2.97;;;1.80;;
78563;SDS011;67856;47.754;19.088;2024-02-26T05:12:44;2.27;;;1.50;;
78563;SDS011;67856;47.754;19.088;2024-02-26T05:15:46;3.70;;;1.50;;
78563;SDS011;67856;47.754;19.088;2024-02-26T05:18:51;9.00;;;1.83;;
78563;SDS011;67856;47.754;19.088;2024-02-26T05:21:54;4.05;;;1.80;;
78563;SDS011;67856;47.754;19.088;2024-02-26T05:24:56;5.47;;;1.85;;
78563;SDS011;67856;47.754;19.088;2024-02-26T05:27:59;3.70;;;2.23;;
78563;SDS011;67856;47.754;19.088;2024-02-26T05:31:01;5.90;;;2.10;;
78563;SDS011;67856;47.754;19.088;2024-02-26T05:34:05;4.22;;;2.13;;
78563;SDS011;67856;47.754;19.088;2024-02-26T05:37:08;3.85;;;1.90;;
78563;SDS011;67856;47.754;19.088;2024-02-26T05:40:10;4.38;;;2.15;;
78563;SDS011;67856;47.754;19.088;2024-02-26T05:43:16;6.70;;;2.30;;
78563;SDS011;67856;47.754;19.088;2024-02-26T05:46:19;7.23;;;2.07;;
78563;SDS011;67856;47.754;19.088;2024-02-26T05:49:22;5.90;;;1.95;;
78563;SDS011;67856;47.754;19.088;2024-02-26T05:52:25;4.38;;;2.00;;
78563;SDS011;67856;47.754;19.088;2024-02-26T05:55:28;7.82;;;2.55;;
78563;SDS011;67856;47.754;19.088;2024-02-26T05:58:30;4.77;;;2.00;;
78563;SDS011;67856;47.754;19.088;2024-02-26T06:01:33;5.33;;;2.20;;
78563;SDS011;67856;47.754;19.088;2024-02-26T06:04:35;4.90;;;2.00;;
78563;SDS011;67856;47.754;19.088;2024-02-26T06:07:38;5.63;;;2.35;;
78563;SDS011;67856;47.754;19.088;2024-02-26T06:10:40;7.82;;;2.30;;
78563;SDS011;67856;47.754;19.088;2024-02-26T06:13:43;5.60;;;2.47;;
78563;SDS011;67856;47.754;19.088;2024-02-26T06:16:45;5.43;;;2.60;;
78563;SDS011;67856;47.754;19.088;2024-02-26T06:19:49;6.55;;;2.58;;
78563;SDS011;67856;47.754;19.088;2024-02-26T06:22:52;3.17;;;2.45;;
78563;SDS011;67856;47.754;19.088;2024-02-26T06:25:54;6.45;;;2.60;;
78563;SDS011;67856;47.754;19.088;2024-02-26T06:28:57;5.73;;;2.90;;
78563;SDS011;67856;47.754;19.088;2024-02-26T06:32:00;6.17;;;2.90;;
78563;SDS011;67856;47.754;19.088;2024-02-26T06:35:02;7.45;;;2.60;;
78563;SDS011;67856;47.754;19.088;2024-02-26T06:38:10;5.32;;;2.55;;
78563;SDS011;67856;47.754;19.088;2024-02-26T06:41:15;5.43;;;2.65;;
78563;SDS011;67856;47.754;19.088;2024-02-26T06:44:17;4.37;;;2.90;;
78563;SDS011;67856;47.754;19.088;2024-02-26T06:47:20;5.60;;;3.30;;
78563;SDS011;67856;47.754;19.088;2024-02-26T06:50:22;6.45;;;3.17;;
78563;SDS011;67856;47.754;19.088;2024-02-26T06:53:26;11.02;;;3.10;;
78563;SDS011;67856;47.754;19.088;2024-02-26T06:56:28;10.57;;;3.20;;
78563;SDS011;67856;47.754;19.088;2024-02-26T06:59:31;6.13;;;3.30;;
78563;SDS011;67856;47.754;19.088;2024-02-26T07:02:36;8.80;;;2.97;;
78563;SDS011;67856;47.754;19.088;2024-02-26T07:05:41;6.65;;;3.30;;
78563;SDS011;67856;47.754;19.088;2024-02-26T07:08:43;9.45;;;3.53;;
78563;SDS011;67856;47.754;19.088;2024-02-26T07:11:47;13.02;;;3.38;;
78563;SDS011;67856;47.754;19.088;2024-02-26T07:14:49;9.93;;;3.27;;
78563;SDS011;67856;47.754;19.088;2024-02-26T07:17:52;14.10;;;3.30;;
78563;SDS011;67856;47.754;19.088;2024-02-26T07:20:55;9.32;;;3.70;;
78563;SDS011;67856;47.754;19.088;2024-02-26T07:23:58;9.48;;;3.65;;
78563;SDS011;67856;47.754;19.088;2024-02-26T07:27:03;10.98;;;3.78;;
78563;SDS011;67856;47.754;19.088;2024-02-26T07:30:06;12.37;;;3.70;;
78563;SDS011;67856;47.754;19.088;2024-02-26T07:33:10;12.53;;;3.70;;
78563;SDS011;67856;47.754;19.088;2024-02-26T07:36:13;11.10;;;3.97;;
78563;SDS011;67856;47.754;19.088;2024-02-26T07:39:15;17.13;;;4.18;;
78563;SDS011;67856;47.754;19.088;2024-02-26T07:42:18;14.18;;;5.00;;
78563;SDS011;67856;47.754;19.088;2024-02-26T07:45:21;13.60;;;5.33;;
78563;SDS011;67856;47.754;19.088;2024-02-26T07:48:23;9.80;;;4.67;;
78563;SDS011;67856;47.754;19.088;2024-02-26T07:51:27;11.25;;;4.78;;
78563;SDS011;67856;47.754;19.088;2024-02-26T07:54:30;13.20;;;5.10;;
78563;SDS011;67856;47.754;19.088;2024-02-26T07:57:34;11.82;;;4.13;;
78563;SDS011;67856;47.754;19.088;2024-02-26T08:00:37;17.97;;;4.80;;
78563;SDS011;67856;47.754;19.088;2024-02-26T08:03:39;13.73;;;5.00;;
78563;SDS011;67856;47.754;19.088;2024-02-26T08:06:42;13.95;;;5.30;;
78563;SDS011;67856;47.754;19.088;2024-02-26T08:09:45;16.70;;;5.20;;
78563;SDS011;67856;47.754;19.088;2024-02-26T08:12:48;14.75;;;5.40;;
78563;SDS011;67856;47.754;19.088;2024-02-26T08:15:53;19.97;;;4.57;;
78563;SDS011;67856;47.754;19.088;2024-02-26T08:18:55;16.53;;;4.80;;
78563;SDS011;67856;47.754;19.088;2024-02-26T08:21:58;16.55;;;4.60;;
78563;SDS011;67856;47.754;19.088;2024-02-26T08:25:03;10.95;;;4.68;;
78563;SDS011;67856;47.754;19.088;2024-02-26T08:28:08;9.57;;;4.28;;
78563;SDS011;67856;47.754;19.088;2024-02-26T08:31:13;11.70;;;4.37;;
78563;SDS011;67856;47.754;19.088;2024-02-26T08:34:16;12.73;;;5.30;;
78563;SDS011;67856;47.754;19.088;2024-02-26T08:37:18;17.40;;;4.30;;
78563;SDS011;67856;47.754;19.088;2024-02-26T08:40:21;10.73;;;4.78;;
78563;SDS011;67856;47.754;19.088;2024-02-26T08:43:23;13.23;;;4.70;;
78563;SDS011;67856;47.754;19.088;2024-02-26T08:46:26;17.07;;;4.67;;
78563;SDS011;67856;47.754;19.088;2024-02-26T08:49:29;14.17;;;5.07;;
78563;SDS011;67856;47.754;19.088;2024-02-26T08:52:31;11.05;;;4.30;;
78563;SDS011;67856;47.754;19.088;2024-02-26T08:55:35;13.50;;;4.90;;
78563;SDS011;67856;47.754;19.088;2024-02-26T08:58:43;14.77;;;5.00;;
78563;SDS011;67856;47.754;19.088;2024-02-26T09:01:45;10.53;;;4.53;;
78563;SDS011;67856;47.754;19.088;2024-02-26T09:04:48;15.20;;;4.63;;
78563;SDS011;67856;47.754;19.088;2024-02-26T09:07:50;16.50;;;4.97;;
78563;SDS011;67856;47.754;19.088;2024-02-26T09:10:54;14.60;;;4.93;;
78563;SDS011;67856;47.754;19.088;2024-02-26T09:13:56;20.73;;;6.05;;
78563;SDS011;67856;47.754;19.088;2024-02-26T09:16:59;17.20;;;5.10;;
78563;SDS011;67856;47.754;19.088;2024-02-26T09:20:02;14.57;;;5.17;;
78563;SDS011;67856;47.754;19.088;2024-02-26T09:23:08;15.77;;;5.60;;
78563;SDS011;67856;47.754;19.088;2024-02-26T09:26:11;20.05;;;5.88;;
78563;SDS011;67856;47.754;19.088;2024-02-26T09:29:14;15.32;;;5.72;;
78563;SDS011;67856;47.754;19.088;2024-02-26T09:32:16;14.10;;;5.90;;
78563;SDS011;67856;47.754;19.088;2024-02-26T09:35:20;23.30;;;5.70;;
78563;SDS011;67856;47.754;19.088;2024-02-26T09:38:23;20.17;;;5.70;;
78563;SDS011;67856;47.754;19.088;2024-02-26T09:41:27;23.73;;;6.00;;
78563;SDS011;67856;47.754;19.088;2024-02-26T09:44:31;13.00;;;5.45;;
78563;SDS011;67856;47.754;19.088;2024-02-26T09:47:38;14.93;;;5.73;;
78563;SDS011;67856;47.754;19.088;2024-02-26T09:50:44;16.37;;;6.50;;
78563;SDS011;67856;47.754;19.088;2024-02-26T09:53:48;15.77;;;6.75;;
78563;SDS011;67856;47.754;19.088;2024-02-26T09:56:54;15.73;;;6.28;;
78563;SDS011;67856;47.754;19.088;2024-02-26T10:00:06;26.48;;;6.82;;
78563;SDS011;67856;47.754;19.088;2024-02-26T10:03:12;22.97;;;7.53;;
78563;SDS011;67856;47.754;19.088;2024-02-26T10:06:17;18.20;;;6.93;;
78563;SDS011;67856;47.754;19.088;2024-02-26T10:09:21;21.30;;;7.65;;
78563;SDS011;67856;47.754;19.088;2024-02-26T10:12:23;18.33;;;7.10;;
78563;SDS011;67856;47.754;19.088;2024-02-26T10:15:28;18.73;;;7.28;;
78563;SDS011;67856;47.754;19.088;2024-02-26T10:18:50;14.27;;;7.17;;
78563;SDS011;67856;47.754;19.088;2024-02-26T10:22:01;20.70;;;8.17;;
78563;SDS011;67856;47.754;19.088;2024-02-26T10:25:04;18.92;;;7.53;;
78563;SDS011;67856;47.754;19.088;2024-02-26T10:28:07;21.45;;;7.97;;
78563;SDS011;67856;47.754;19.088;2024-02-26T10:31:13;20.77;;;7.57;;
78563;SDS011;67856;47.754;19.088;2024-02-26T10:34:16;14.83;;;7.17;;
78563;SDS011;67856;47.754;19.088;2024-02-26T10:37:19;16.27;;;8.13;;
78563;SDS011;67856;47.754;19.088;2024-02-26T10:40:21;20.83;;;8.43;;
78563;SDS011;67856;47.754;19.088;2024-02-26T10:43:27;26.67;;;7.70;;
78563;SDS011;67856;47.754;19.088;2024-02-26T10:46:32;16.05;;;7.70;;
78563;SDS011;67856;47.754;19.088;2024-02-26T10:49:35;22.43;;;9.03;;
78563;SDS011;67856;47.754;19.088;2024-02-26T10:52:41;30.97;;;10.53;;
78563;SDS011;67856;47.754;19.088;2024-02-26T10:56:05;37.53;;;11.07;;
78563;SDS011;67856;47.754;19.088;2024-02-26T10:59:11;27.65;;;11.38;;
78563;SDS011;67856;47.754;19.088;2024-02-26T11:02:14;24.10;;;10.93;;
78563;SDS011;67856;47.754;19.088;2024-02-26T11:05:17;19.00;;;10.43;;
78563;SDS011;67856;47.754;19.088;2024-02-26T11:08:19;28.80;;;11.60;;
78563;SDS011;67856;47.754;19.088;2024-02-26T11:11:27;28.80;;;12.38;;
78563;SDS011;67856;47.754;19.088;2024-02-26T11:14:30;31.38;;;12.38;;
78563;SDS011;67856;47.754;19.088;2024-02-26T11:17:33;24.45;;;11.68;;
78563;SDS011;67856;47.754;19.088;2024-02-26T11:20:39;24.70;;;11.43;;
78563;SDS011;67856;47.754;19.088;2024-02-26T11:23:42;29.73;;;11.87;;
78563;SDS011;67856;47.754;19.088;2024-02-26T11:26:50;27.05;;;11.95;;
78563;SDS011;67856;47.754;19.088;2024-02-26T11:30:02;26.20;;;12.15;;
78563;SDS011;67856;47.754;19.088;2024-02-26T11:33:08;20.80;;;11.95;;
78563;SDS011;67856;47.754;19.088;2024-02-26T11:36:14;22.30;;;12.13;;
78563;SDS011;67856;47.754;19.088;2024-02-26T11:39:16;26.70;;;12.00;;
78563;SDS011;67856;47.754;19.088;2024-02-26T11:42:22;37.25;;;13.38;;
78563;SDS011;67856;47.754;19.088;2024-02-26T11:48:44;35.10;;;13.02;;
78563;SDS011;67856;47.754;19.088;2024-02-26T11:51:50;43.33;;;12.83;;
78563;SDS011;67856;47.754;19.088;2024-02-26T11:54:55;44.87;;;13.87;;
78563;SDS011;67856;47.754;19.088;2024-02-26T11:57:59;36.97;;;13.43;;
78563;SDS011;67856;47.754;19.088;2024-02-26T12:01:02;43.95;;;14.55;;
78563;SDS011;67856;47.754;19.088;2024-02-26T12:04:09;39.08;;;14.63;;
78563;SDS011;67856;47.754;19.088;2024-02-26T12:07:14;41.10;;;15.07;;
78563;SDS011;67856;47.754;19.088;2024-02-26T12:13:30;39.85;;;14.95;;
78563;SDS011;67856;47.754;19.088;2024-02-26T12:16:37;44.17;;;15.40;;
78563;SDS011;67856;47.754;19.088;2024-02-26T12:19:40;47.58;;;15.48;;
78563;SDS011;67856;47.754;19.088;2024-02-26T12:22:45;39.20;;;16.30;;
78563;SDS011;67856;47.754;19.088;2024-02-26T12:25:50;36.33;;;15.70;;
78563;SDS011;67856;47.754;19.088;2024-02-26T12:28:52;36.13;;;17.00;;
78563;SDS011;67856;47.754;19.088;2024-02-26T12:31:57;39.40;;;15.88;;
78563;SDS011;67856;47.754;19.088;2024-02-26T12:34:59;42.58;;;16.65;;
78563;SDS011;67856;47.754;19.088;2024-02-26T12:38:02;38.13;;;15.47;;
78563;SDS011;67856;47.754;19.088;2024-02-26T12:41:06;36.93;;;15.93;;
78563;SDS011;67856;47.754;19.088;2024-02-26T12:44:09;39.50;;;16.38;;
78563;SDS011;67856;47.754;19.088;2024-02-26T12:47:21;42.88;;;15.02;;
78563;SDS011;67856;47.754;19.088;2024-02-26T12:50:27;39.70;;;15.70;;
78563;SDS011;67856;47.754;19.088;2024-02-26T12:53:30;33.63;;;14.77;;
78563;SDS011;67856;47.754;19.088;2024-02-26T12:56:32;40.17;;;15.10;;
78563;SDS011;67856;47.754;19.088;2024-02-26T12:59:36;38.75;;;14.52;;
78563;SDS011;67856;47.754;19.088;2024-02-26T13:02:39;35.13;;;14.68;;
78563;SDS011;67856;47.754;19.088;2024-02-26T13:05:41;30.77;;;14.43;;
78563;SDS011;67856;47.754;19.088;2024-02-26T13:08:45;32.70;;;13.30;;
78563;SDS011;67856;47.754;19.088;2024-02-26T13:11:55;31.87;;;13.23;;
78563;SDS011;67856;47.754;19.088;2024-02-26T13:14:59;38.25;;;14.80;;
78563;SDS011;67856;47.754;19.088;2024-02-26T13:18:12;31.52;;;13.63;;
78563;SDS011;67856;47.754;19.088;2024-02-26T13:21:16;30.80;;;13.65;;
78563;SDS011;67856;47.754;19.088;2024-02-26T13:24:20;32.57;;;13.40;;
78563;SDS011;67856;47.754;19.088;2024-02-26T13:27:24;31.77;;;14.57;;
78563;SDS011;67856;47.754;19.088;2024-02-26T13:30:28;29.38;;;13.52;;
78563;SDS011;67856;47.754;19.088;2024-02-26T13:33:30;33.75;;;13.52;;
78563;SDS011;67856;47.754;19.088;2024-02-26T13:36:34;34.63;;;13.98;;
78563;SDS011;67856;47.754;19.088;2024-02-26T13:39:36;30.30;;;13.13;;
78563;SDS011;67856;47.754;19.088;2024-02-26T13:42:43;25.93;;;13.17;;
78563;SDS011;67856;47.754;19.088;2024-02-26T13:45:45;33.60;;;12.82;;
78563;SDS011;67856;47.754;19.088;2024-02-26T13:48:48;27.77;;;12.48;;
78563;SDS011;67856;47.754;19.088;2024-02-26T13:51:51;24.60;;;12.80;;
78563;SDS011;67856;47.754;19.088;2024-02-26T13:54:54;28.77;;;12.57;;
78563;SDS011;67856;47.754;19.088;2024-02-26T13:57:56;28.40;;;12.87;;
78563;SDS011;67856;47.754;19.088;2024-02-26T14:00:59;24.90;;;13.05;;
78563;SDS011;67856;47.754;19.088;2024-02-26T14:04:05;26.27;;;13.75;;
78563;SDS011;67856;47.754;19.088;2024-02-26T14:07:09;27.45;;;14.02;;
78563;SDS011;67856;47.754;19.088;2024-02-26T14:10:13;29.70;;;13.27;;
78563;SDS011;67856;47.754;19.088;2024-02-26T14:13:15;22.33;;;12.20;;
78563;SDS011;67856;47.754;19.088;2024-02-26T14:16:18;26.63;;;12.80;;
78563;SDS011;67856;47.754;19.088;2024-02-26T14:19:22;26.48;;;12.35;;
78563;SDS011;67856;47.754;19.088;2024-02-26T14:22:25;30.20;;;12.80;;
78563;SDS011;67856;47.754;19.088;2024-02-26T14:25:30;24.20;;;12.63;;
78563;SDS011;67856;47.754;19.088;2024-02-26T14:28:32;20.73;;;11.93;;
78563;SDS011;67856;47.754;19.088;2024-02-26T14:31:38;20.67;;;11.80;;
78563;SDS011;67856;47.754;19.088;2024-02-26T14:34:40;24.95;;;12.23;;
78563;SDS011;67856;47.754;19.088;2024-02-26T14:37:44;25.45;;;12.50;;
78563;SDS011;67856;47.754;19.088;2024-02-26T14:40:51;23.17;;;11.80;;
78563;SDS011;67856;47.754;19.088;2024-02-26T14:43:53;26.07;;;11.30;;
78563;SDS011;67856;47.754;19.088;2024-02-26T14:46:56;25.95;;;11.48;;
78563;SDS011;67856;47.754;19.088;2024-02-26T14:49:58;18.55;;;11.45;;
78563;SDS011;67856;47.754;19.088;2024-02-26T14:53:01;21.33;;;11.88;;
78563;SDS011;67856;47.754;19.088;2024-02-26T14:56:04;19.53;;;11.40;;
78563;SDS011;67856;47.754;19.088;2024-02-26T14:59:07;22.20;;;11.77;;
78563;SDS011;67856;47.754;19.088;2024-02-26T15:02:10;20.02;;;11.65;;
78563;SDS011;67856;47.754;19.088;2024-02-26T15:05:13;23.05;;;11.40;;
78563;SDS011;67856;47.754;19.088;2024-02-26T15:08:15;30.20;;;13.15;;
78563;SDS011;67856;47.754;19.088;2024-02-26T15:11:19;28.73;;;13.23;;
78563;SDS011;67856;47.754;19.088;2024-02-26T15:14:22;31.13;;;12.50;;
78563;SDS011;67856;47.754;19.088;2024-02-26T15:17:24;33.65;;;13.30;;
78563;SDS011;67856;47.754;19.088;2024-02-26T15:20:30;33.00;;;14.18;;
78563;SDS011;67856;47.754;19.088;2024-02-26T15:23:33;42.28;;;14.45;;
78563;SDS011;67856;47.754;19.088;2024-02-26T15:26:37;29.80;;;14.00;;
78563;SDS011;67856;47.754;19.088;2024-02-26T15:29:42;29.40;;;14.33;;
78563;SDS011;67856;47.754;19.088;2024-02-26T15:32:44;36.10;;;14.70;;
78563;SDS011;67856;47.754;19.088;2024-02-26T15:35:47;43.28;;;14.73;;
78563;SDS011;67856;47.754;19.088;2024-02-26T15:38:50;37.75;;;13.90;;
78563;SDS011;67856;47.754;19.088;2024-02-26T15:41:52;28.37;;;14.47;;
78563;SDS011;67856;47.754;19.088;2024-02-26T15:44:55;33.03;;;14.37;;
78563;SDS011;67856;47.754;19.088;2024-02-26T15:47:57;33.38;;;13.73;;
78563;SDS011;67856;47.754;19.088;2024-02-26T15:51:00;27.45;;;13.20;;
78563;SDS011;67856;47.754;19.088;2024-02-26T15:54:02;32.03;;;14.27;;
78563;SDS011;67856;47.754;19.088;2024-02-26T15:57:05;30.63;;;14.40;;
78563;SDS011;67856;47.754;19.088;2024-02-26T16:00:09;36.40;;;13.40;;
78563;SDS011;67856;47.754;19.088;2024-02-26T16:03:15;26.88;;;13.50;;
78563;SDS011;67856;47.754;19.088;2024-02-26T16:06:19;34.47;;;13.88;;
78563;SDS011;67856;47.754;19.088;2024-02-26T16:09:25;31.02;;;13.82;;
78563;SDS011;67856;47.754;19.088;2024-02-26T16:12:41;23.60;;;12.87;;
78563;SDS011;67856;47.754;19.088;2024-02-26T16:16:02;26.60;;;13.03;;
78563;SDS011;67856;47.754;19.088;2024-02-26T16:19:09;33.83;;;14.15;;
78563;SDS011;67856;47.754;19.088;2024-02-26T16:22:14;30.35;;;13.25;;
78563;SDS011;67856;47.754;19.088;2024-02-26T16:25:17;25.52;;;12.77;;
78563;SDS011;67856;47.754;19.088;2024-02-26T16:28:20;27.60;;;13.67;;
78563;SDS011;67856;47.754;19.088;2024-02-26T16:31:27;27.30;;;13.87;;
78563;SDS011;67856;47.754;19.088;2024-02-26T16:34:31;26.75;;;12.85;;
78563;SDS011;67856;47.754;19.088;2024-02-26T16:37:33;22.38;;;13.05;;
78563;SDS011;67856;47.754;19.088;2024-02-26T16:40:36;24.80;;;13.35;;
78563;SDS011;67856;47.754;19.088;2024-02-26T16:43:39;32.47;;;12.57;;
78563;SDS011;67856;47.754;19.088;2024-02-26T16:46:41;26.77;;;13.40;;
78563;SDS011;67856;47.754;19.088;2024-02-26T16:49:44;29.00;;;13.20;;
78563;SDS011;67856;47.754;19.088;2024-02-26T16:52:46;21.48;;;12.52;;
78563;SDS011;67856;47.754;19.088;2024-02-26T16:55:49;27.27;;;12.80;;
78563;SDS011;67856;47.754;19.088;2024-02-26T16:58:51;23.83;;;13.47;;
78563;SDS011;67856;47.754;19.088;2024-02-26T17:01:54;23.33;;;12.73;;
78563;SDS011;67856;47.754;19.088;2024-02-26T17:04:57;29.00;;;12.80;;
78563;SDS011;67856;47.754;19.088;2024-02-26T17:08:00;21.05;;;13.32;;
78563;SDS011;67856;47.754;19.088;2024-02-26T17:11:02;22.85;;;13.55;;
78563;SDS011;67856;47.754;19.088;2024-02-26T17:14:06;32.73;;;15.47;;
78563;SDS011;67856;47.754;19.088;2024-02-26T17:17:09;27.17;;;13.70;;
78563;SDS011;67856;47.754;19.088;2024-02-26T17:20:11;26.48;;;13.20;;
78563;SDS011;67856;47.754;19.088;2024-02-26T17:23:14;27.95;;;13.60;;
78563;SDS011;67856;47.754;19.088;2024-02-26T17:26:17;26.55;;;13.38;;
78563;SDS011;67856;47.754;19.088;2024-02-26T17:29:23;25.67;;;14.07;;
78563;SDS011;67856;47.754;19.088;2024-02-26T17:32:26;25.37;;;12.77;;
78563;SDS011;67856;47.754;19.088;2024-02-26T17:35:29;25.77;;;14.88;;
78563;SDS011;67856;47.754;19.088;2024-02-26T17:38:31;23.33;;;12.43;;
78563;SDS011;67856;47.754;19.088;2024-02-26T17:41:33;24.20;;;13.52;;
78563;SDS011;67856;47.754;19.088;2024-02-26T17:44:36;25.17;;;13.90;;
78563;SDS011;67856;47.754;19.088;2024-02-26T17:47:40;24.63;;;13.33;;
78563;SDS011;67856;47.754;19.088;2024-02-26T17:50:42;22.15;;;12.98;;
78563;SDS011;67856;47.754;19.088;2024-02-26T17:53:45;22.05;;;13.50;;
78563;SDS011;67856;47.754;19.088;2024-02-26T17:56:47;20.58;;;13.13;;
78563;SDS011;67856;47.754;19.088;2024-02-26T17:59:50;20.47;;;11.93;;